createdAt,value
2018-10-09T00:01:02.136Z,101430.13
2018-10-09T00:03:29.121Z,101434.22
2018-10-09T00:05:56.120Z,101438.21
2018-10-09T00:08:23.288Z,101427.28
2018-10-09T00:10:50.263Z,101438.75
2018-10-09T00:13:17.375Z,101444.39
2018-10-09T00:15:44.394Z,101453.98
2018-10-09T00:18:11.447Z,101450.84
2018-10-09T00:20:38.518Z,101447.36
2018-10-09T00:23:06.264Z,101453.73
2018-10-09T00:25:33.463Z,101458.11
2018-10-09T00:28:00.537Z,101458.69
2018-10-09T00:30:27.849Z,101453.73
2018-10-09T00:32:55.148Z,101450.98
2018-10-09T00:35:22.110Z,101450.05
2018-10-09T00:37:49.212Z,101446.69
2018-10-09T00:40:16.746Z,101448.89
2018-10-09T00:42:43.794Z,101443.05
2018-10-09T00:45:10.839Z,101435.54
2018-10-09T00:47:37.863Z,101434.22
2018-10-09T00:50:05.008Z,101424.81
2018-10-09T00:52:32.095Z,101427.66
2018-10-09T00:54:59.336Z,101431.71
2018-10-09T00:57:26.360Z,101432.09
2018-10-09T00:59:53.366Z,101427.33
2018-10-09T01:02:20.431Z,101434.34
2018-10-09T01:04:47.447Z,101437.31
2018-10-09T01:07:14.445Z,101435.47
2018-10-09T01:09:41.432Z,101431.81
2018-10-09T01:12:08.435Z,101437.85
2018-10-09T01:14:35.516Z,101441.19
2018-10-09T01:17:03.132Z,101430.77
2018-10-09T01:19:30.168Z,101435.50
2018-10-09T01:21:57.219Z,101417.83
2018-10-09T01:24:37.707Z,101424.06
2018-10-09T01:27:04.813Z,101425.48
2018-10-09T01:29:31.875Z,101430.34
2018-10-09T01:31:59.916Z,101430.71
2018-10-09T01:34:26.964Z,101420.15
2018-10-09T01:36:54.076Z,101432.49
2018-10-09T01:39:21.059Z,101425.88
2018-10-09T01:41:48.107Z,101422.06
2018-10-09T01:44:15.442Z,101424.44
2018-10-09T01:46:42.418Z,101430.43
2018-10-09T01:49:09.649Z,101429.11
2018-10-09T01:51:36.631Z,101436.87
2018-10-09T01:54:03.671Z,101430.66
2018-10-09T01:56:30.663Z,101417.11
2018-10-09T01:58:57.872Z,101423.45
2018-10-09T02:01:24.847Z,101418.08
2018-10-09T02:03:51.836Z,101409.55
2018-10-09T02:06:18.841Z,101412.09
2018-10-09T02:08:45.829Z,101405.55
2018-10-09T02:11:12.800Z,101400.69
2018-10-09T02:13:40.048Z,101402.47
2018-10-09T02:16:07.239Z,101404.26
2018-10-09T02:18:34.275Z,101397.00
2018-10-09T02:21:01.288Z,101394.34
2018-10-09T02:23:28.342Z,101392.19
2018-10-09T02:25:55.517Z,101391.98
2018-10-09T02:28:22.531Z,101389.84
2018-10-09T02:30:49.619Z,101380.73
2018-10-09T02:33:16.589Z,101369.66
2018-10-09T02:35:43.609Z,101319.37
2018-10-09T02:38:10.599Z,101381.11
2018-10-09T02:40:37.702Z,101386.94
2018-10-09T02:43:04.764Z,101386.18
2018-10-09T02:45:31.744Z,101375.53
2018-10-09T02:47:58.790Z,101379.78
2018-10-09T02:50:25.864Z,101377.59
2018-10-09T02:52:52.843Z,101376.14
2018-10-09T02:55:19.859Z,101380.28
2018-10-09T02:57:46.959Z,101384.20
2018-10-09T03:00:13.953Z,101392.97
2018-10-09T03:02:41.100Z,101397.84
2018-10-09T03:05:08.297Z,101399.43
2018-10-09T03:07:35.471Z,101389.48
2018-10-09T03:10:02.804Z,101409.84
2018-10-09T03:12:29.801Z,101410.95
2018-10-09T03:14:56.864Z,101411.82
2018-10-09T03:17:23.853Z,101403.00
2018-10-09T03:19:50.840Z,101391.20
2018-10-09T03:22:17.911Z,101389.83
2018-10-09T03:24:44.880Z,101393.94
2018-10-09T03:27:11.953Z,101381.80
2018-10-09T03:29:38.955Z,101376.81
2018-10-09T03:32:06.432Z,101378.55
2018-10-09T03:34:33.414Z,101376.25
2018-10-09T03:37:00.420Z,101383.77
2018-10-09T03:39:27.397Z,101368.78
2018-10-09T03:41:54.381Z,101375.04
2018-10-09T03:44:21.462Z,101380.25
2018-10-09T03:46:48.459Z,101372.58
2018-10-09T03:49:15.441Z,101385.65
2018-10-09T03:51:42.544Z,101395.27
2018-10-09T03:54:09.508Z,101402.19
2018-10-09T03:56:36.739Z,101408.70
2018-10-09T03:59:03.787Z,101407.41
2018-10-09T04:01:30.828Z,101397.41
2018-10-09T04:03:58.085Z,101393.02
2018-10-09T04:06:25.512Z,101397.80
2018-10-09T04:08:52.534Z,101403.13
2018-10-09T04:11:19.844Z,101409.48
2018-10-09T04:13:46.847Z,101408.31
2018-10-09T04:16:13.859Z,101405.11
2018-10-09T04:18:41.551Z,101402.98
2018-10-09T04:21:08.732Z,101401.11
2018-10-09T04:23:35.956Z,101404.17
2018-10-09T04:26:02.946Z,101399.90
2018-10-09T04:28:30.332Z,101397.41
2018-10-09T04:30:57.308Z,101401.05
2018-10-09T04:33:24.552Z,101401.05
2018-10-09T04:35:51.533Z,101397.77
2018-10-09T04:38:18.516Z,101388.75
2018-10-09T04:40:45.599Z,101396.04
2018-10-09T04:43:12.667Z,101400.05
2018-10-09T04:45:39.741Z,101401.66
2018-10-09T04:48:06.860Z,101393.78
2018-10-09T04:50:33.844Z,101401.53
2018-10-09T04:53:01.266Z,101394.78
2018-10-09T04:55:28.221Z,101383.52
2018-10-09T04:57:55.252Z,101390.53
2018-10-09T05:00:22.628Z,101397.05
2018-10-09T05:02:49.733Z,101394.42
2018-10-09T05:05:16.803Z,101389.30
2018-10-09T05:07:43.818Z,101390.03
2018-10-09T05:10:10.957Z,101383.30
2018-10-09T05:12:38.012Z,101385.05
2018-10-09T05:15:05.367Z,101377.92
2018-10-09T05:17:32.497Z,101379.78
2018-10-09T05:19:59.475Z,101370.17
2018-10-09T05:22:26.467Z,101370.04
2018-10-09T05:24:53.563Z,101375.53
2018-10-09T05:27:20.636Z,101384.53
2018-10-09T05:29:47.720Z,101391.26
2018-10-09T05:32:15.811Z,101399.02
2018-10-09T05:34:42.799Z,101405.21
2018-10-09T05:37:09.765Z,101408.42
2018-10-09T05:39:37.090Z,101410.70
2018-10-09T05:42:04.099Z,101409.95
2018-10-09T05:44:31.180Z,101405.65
2018-10-09T05:46:58.143Z,101413.14
2018-10-09T05:49:25.119Z,101412.55
2018-10-09T05:51:52.117Z,101409.31
2018-10-09T05:54:19.124Z,101399.92
2018-10-09T05:56:46.117Z,101394.68
2018-10-09T05:59:13.469Z,101393.55
2018-10-09T06:01:40.541Z,101399.19
2018-10-09T06:04:07.678Z,101400.30
2018-10-09T06:06:34.763Z,101412.55
2018-10-09T06:09:01.761Z,101408.42
2018-10-09T06:11:28.848Z,101404.67
2018-10-09T06:13:55.944Z,101407.56
2018-10-09T06:16:22.929Z,101413.05
2018-10-09T06:18:49.963Z,101421.43
2018-10-09T06:21:16.984Z,101423.93
2018-10-09T06:23:43.987Z,101427.81
2018-10-09T06:26:10.967Z,101429.59
2018-10-09T06:28:38.151Z,101433.70
2018-10-09T06:31:05.388Z,101445.70
2018-10-09T06:33:32.528Z,101456.63
2018-10-09T06:35:59.799Z,101448.61
2018-10-09T06:38:26.871Z,101455.98
2018-10-09T06:40:53.852Z,101460.36
2018-10-09T06:43:20.848Z,101459.09
2018-10-09T06:45:47.863Z,101461.33
2018-10-09T06:48:14.864Z,101468.97
2018-10-09T06:50:41.956Z,101459.05
2018-10-09T06:53:09.017Z,101453.98
2018-10-09T06:55:36.095Z,101463.63
2018-10-09T06:58:03.128Z,101462.58
2018-10-09T07:00:30.767Z,101467.70
2018-10-09T07:02:59.955Z,101466.69
2018-10-09T07:05:27.278Z,101457.34
2018-10-09T07:07:54.255Z,101454.34
2018-10-09T07:10:21.224Z,101466.98
2018-10-09T07:12:48.423Z,101472.62
2018-10-09T07:15:15.715Z,101467.85
2018-10-09T07:17:42.680Z,101469.06
2018-10-09T07:20:09.696Z,101474.31
2018-10-09T07:22:36.974Z,101489.86
2018-10-09T07:25:04.303Z,101486.85
2018-10-09T07:27:31.296Z,101495.41
2018-10-09T07:29:58.416Z,101493.24
2018-10-09T07:32:25.514Z,101486.09
2018-10-09T07:34:52.644Z,101484.55
2018-10-09T07:37:19.743Z,101490.13
2018-10-09T07:39:46.737Z,101499.47
2018-10-09T07:42:13.809Z,101501.98
2018-10-09T07:44:40.895Z,101511.20
2018-10-09T07:47:07.987Z,101505.71
2018-10-09T07:49:35.311Z,101513.06
2018-10-09T07:52:02.392Z,101513.94
2018-10-09T07:54:29.356Z,101516.27
2018-10-09T07:56:56.433Z,101514.42
2018-10-09T07:59:23.420Z,101522.19
2018-10-09T08:01:50.499Z,101526.98
2018-10-09T08:04:17.891Z,101521.36
2018-10-09T08:06:44.905Z,101514.03
2018-10-09T08:09:12.001Z,101522.28
2018-10-09T08:11:39.069Z,101516.34
2018-10-09T08:14:06.508Z,101520.23
2018-10-09T08:16:33.480Z,101514.80
2018-10-09T08:19:00.515Z,101520.05
2018-10-09T08:21:27.492Z,101526.59
2018-10-09T08:23:54.845Z,101515.75
2018-10-09T08:26:22.214Z,101528.89
2018-10-09T08:28:49.960Z,101524.64
2018-10-09T08:31:16.960Z,101526.89
2018-10-09T08:33:44.239Z,101517.31
2018-10-09T08:36:11.212Z,101519.26
2018-10-09T08:38:38.218Z,101516.27
2018-10-09T08:41:05.332Z,101518.22
2018-10-09T08:43:32.392Z,101520.38
2018-10-09T08:45:59.447Z,101530.70
2018-10-09T08:48:26.889Z,101528.36
2018-10-09T08:50:54.220Z,101528.66
2018-10-09T08:53:21.219Z,101526.68
2018-10-09T08:55:48.416Z,101522.34
2018-10-09T08:58:15.383Z,101526.53
2018-10-09T09:00:42.412Z,101526.53
2018-10-09T09:03:09.460Z,101531.00
2018-10-09T09:05:36.440Z,101528.30
2018-10-09T09:08:03.460Z,101536.62
2018-10-09T09:10:30.505Z,101531.92
2018-10-09T09:12:57.571Z,101530.77
2018-10-09T09:15:25.239Z,101531.55
2018-10-09T09:17:52.127Z,101530.31
2018-10-09T09:20:19.423Z,101531.59
2018-10-09T09:22:46.607Z,101533.14
2018-10-09T09:25:13.579Z,101531.30
2018-10-09T09:27:40.953Z,101533.08
2018-10-09T09:30:07.912Z,101531.11
2018-10-09T09:32:34.981Z,101517.02
2018-10-09T09:35:02.034Z,101520.29
2018-10-09T09:37:29.051Z,101520.69
2018-10-09T09:39:56.108Z,101522.95
2018-10-09T09:42:23.104Z,101529.23
2018-10-09T09:44:50.144Z,101535.06
2018-10-09T09:47:17.132Z,101531.28
2018-10-09T09:49:44.115Z,101533.22
2018-10-09T09:52:11.126Z,101535.73
2018-10-09T09:54:38.097Z,101535.66
2018-10-09T09:57:05.063Z,101529.14
2018-10-09T09:59:32.396Z,101526.89
2018-10-09T10:01:59.392Z,101530.28
2018-10-09T10:04:26.357Z,101535.98
2018-10-09T10:06:53.343Z,101539.48
2018-10-09T10:09:20.502Z,101538.48
2018-10-09T10:11:47.451Z,101540.19
2018-10-09T10:14:14.447Z,101535.98
2018-10-09T10:16:41.636Z,101539.20
2018-10-09T10:19:08.625Z,101532.30
2018-10-09T10:21:35.731Z,101542.23
2018-10-09T10:24:02.757Z,101540.38
2018-10-09T10:26:29.835Z,101542.43
2018-10-09T10:28:56.859Z,101540.52
2018-10-09T10:31:24.062Z,101535.39
2018-10-09T10:33:51.112Z,101531.95
2018-10-09T10:36:18.172Z,101537.73
2018-10-09T10:38:45.747Z,101539.58
2018-10-09T10:41:12.775Z,101543.41
2018-10-09T10:43:40.141Z,101548.11
2018-10-09T10:46:07.759Z,101550.05
2018-10-09T10:48:34.771Z,101548.80
2018-10-09T10:51:01.768Z,101543.12
2018-10-09T10:53:28.778Z,101542.42
2018-10-09T10:55:55.800Z,101540.14
2018-10-09T10:58:22.863Z,101540.23
2018-10-09T11:00:49.972Z,101532.43
2018-10-09T11:03:17.032Z,101534.44
2018-10-09T11:05:44.023Z,101534.81
2018-10-09T11:08:11.192Z,101531.94
2018-10-09T11:10:38.139Z,101535.34
2018-10-09T11:13:05.244Z,101536.84
2018-10-09T11:15:32.247Z,101537.48
2018-10-09T11:17:59.220Z,101544.31
2018-10-09T11:20:26.281Z,101531.80
2018-10-09T11:22:53.439Z,101538.30
2018-10-09T11:25:20.501Z,101532.74
2018-10-09T11:27:47.488Z,101527.04
2018-10-09T11:30:14.579Z,101528.33
2018-10-09T11:32:41.671Z,101532.13
2018-10-09T11:35:08.773Z,101529.28
2018-10-09T11:37:35.835Z,101523.11
2018-10-09T11:40:02.905Z,101512.94
2018-10-09T11:42:32.517Z,101515.96
2018-10-09T11:44:59.780Z,101515.31
2018-10-09T11:47:27.068Z,101514.39
2018-10-09T11:49:54.052Z,101511.77
2018-10-09T11:52:21.042Z,101510.42
2018-10-09T11:54:48.392Z,101507.71
2018-10-09T11:57:15.400Z,101505.00
2018-10-09T11:59:42.459Z,101502.72
2018-10-09T12:02:09.512Z,101507.53
2018-10-09T12:04:36.512Z,101500.13
2018-10-09T12:07:03.512Z,101502.02
2018-10-09T12:09:30.536Z,101501.91
2018-10-09T12:11:57.600Z,101507.62
2018-10-09T12:14:25.003Z,101509.33
2018-10-09T12:16:52.331Z,101507.83
2018-10-09T12:19:19.343Z,101508.19
2018-10-09T12:21:46.433Z,101504.92
2018-10-09T12:24:13.431Z,101494.56
2018-10-09T12:26:40.424Z,101501.23
2018-10-09T12:29:07.424Z,101497.42
2018-10-09T12:31:34.533Z,101491.43
2018-10-09T12:34:01.600Z,101488.63
2018-10-09T12:36:28.591Z,101482.18
2018-10-09T12:38:55.664Z,101497.38
2018-10-09T12:41:22.639Z,101495.00
2018-10-09T12:43:49.805Z,101496.31
2018-10-09T12:46:17.011Z,101489.48
2018-10-09T12:48:44.136Z,101485.48
2018-10-09T12:51:11.193Z,101479.06
2018-10-09T12:56:12.984Z,101474.03
2018-10-09T12:58:40.064Z,101480.41
2018-10-09T13:01:07.191Z,101478.18
2018-10-09T13:03:34.228Z,101484.80
2018-10-09T13:06:01.236Z,101474.02
2018-10-09T13:08:28.217Z,101471.59
2018-10-09T13:10:55.568Z,101477.72
2018-10-09T13:13:22.653Z,101479.09
2018-10-09T13:15:49.663Z,101477.27
2018-10-09T13:18:16.634Z,101477.30
2018-10-09T13:20:43.630Z,101475.90
2018-10-09T13:23:10.699Z,101474.41
2018-10-09T13:25:37.761Z,101472.58
2018-10-09T13:28:05.328Z,101479.56
2018-10-09T13:30:33.756Z,101478.98
2018-10-09T13:33:00.971Z,101477.66
2018-10-09T13:35:28.008Z,101475.54
2018-10-09T13:37:54.996Z,101471.88
2018-10-09T13:40:22.073Z,101478.20
2018-10-09T13:42:49.128Z,101475.19
2018-10-09T13:45:16.088Z,101476.86
2018-10-09T13:47:43.203Z,101471.41
2018-10-09T13:50:10.260Z,101472.49
2018-10-09T13:52:37.405Z,101473.52
2018-10-09T13:55:04.452Z,101466.34
2018-10-09T13:57:31.431Z,101452.78
2018-10-09T13:59:58.456Z,101456.54
2018-10-09T14:02:25.588Z,101455.52
2018-10-09T14:04:52.553Z,101450.14
2018-10-09T14:07:19.632Z,101444.80
2018-10-09T14:09:46.687Z,101442.49
2018-10-09T14:12:14.012Z,101435.45
2018-10-09T14:14:40.995Z,101429.84
2018-10-09T14:17:08.863Z,101441.27
2018-10-09T14:19:36.008Z,101435.47
2018-10-09T14:22:03.073Z,101437.52
2018-10-09T14:24:30.056Z,101435.88
2018-10-09T14:26:57.196Z,101440.55
2018-10-09T14:29:24.225Z,101446.03
2018-10-09T14:31:51.291Z,101439.47
2018-10-09T14:34:18.364Z,101440.81
2018-10-09T14:36:45.360Z,101439.08
2018-10-09T14:39:12.485Z,101437.19
2018-10-09T14:41:39.897Z,101431.20
2018-10-09T14:44:07.177Z,101429.20
2018-10-09T14:46:34.167Z,101428.34
2018-10-09T14:49:01.173Z,101428.67
2018-10-09T14:51:28.444Z,101431.34
2018-10-09T14:53:55.421Z,101435.75
2018-10-09T14:56:22.641Z,101430.76
2018-10-09T14:58:49.628Z,101431.30
2018-10-09T15:01:16.805Z,101432.98
2018-10-09T15:03:43.793Z,101432.25
2018-10-09T15:10:39.232Z,101446.07
2018-10-09T15:13:06.247Z,101443.94
2018-10-09T15:15:33.248Z,101446.07
2018-10-09T15:18:00.722Z,101446.06
2018-10-09T15:20:27.713Z,101444.79
2018-10-09T15:22:55.780Z,101443.92
2018-10-09T15:25:23.091Z,101452.73
2018-10-09T15:27:50.368Z,101455.83
2018-10-09T15:30:17.524Z,101453.14
2018-10-09T15:32:44.604Z,101460.30
2018-10-09T15:35:12.012Z,101456.03
2018-10-09T15:37:39.116Z,101452.34
2018-10-09T15:40:06.124Z,101459.29
2018-10-09T15:42:33.417Z,101458.22
2018-10-09T15:45:00.401Z,101460.78
2018-10-09T15:47:27.680Z,101460.73
2018-10-09T15:49:54.680Z,101454.18
2018-10-09T15:52:21.745Z,101461.15
2018-10-09T15:54:48.728Z,101453.04
2018-10-09T15:57:16.143Z,101450.09
2018-10-09T15:59:43.218Z,101448.82
2018-10-09T16:02:10.393Z,101454.41
2018-10-09T16:04:37.553Z,101452.09
2018-10-09T16:07:04.794Z,101454.81
2018-10-09T16:09:31.751Z,101449.38
2018-10-09T16:11:58.764Z,101456.12
2018-10-09T16:14:26.013Z,101456.53
2018-10-09T16:16:53.328Z,101455.45
2018-10-09T16:19:20.427Z,101453.22
2018-10-09T16:21:47.420Z,101454.58
2018-10-09T16:24:14.862Z,101451.45
2018-10-09T16:26:42.288Z,101453.55
2018-10-09T16:29:09.482Z,101455.13
2018-10-09T16:31:36.564Z,101455.45
2018-10-09T16:34:03.699Z,101454.83
2018-10-09T16:36:31.151Z,101453.81
2018-10-09T16:38:58.547Z,101452.78
2018-10-09T16:41:25.567Z,101456.02
2018-10-09T16:43:52.553Z,101456.66
2018-10-09T16:46:19.808Z,101458.47
2018-10-09T16:48:47.203Z,101456.52
2018-10-09T16:51:14.195Z,101464.82
2018-10-09T16:53:41.184Z,101465.76
2018-10-09T16:56:08.857Z,101466.86
2018-10-09T16:58:35.930Z,101466.87
2018-10-09T17:01:03.396Z,101468.94
2018-10-09T17:03:30.835Z,101462.73
2018-10-09T17:05:57.840Z,101468.66
2018-10-09T17:08:24.891Z,101472.77
2018-10-09T17:10:51.888Z,101465.70
2018-10-09T17:13:19.217Z,101465.13
2018-10-09T17:15:46.320Z,101465.83
2018-10-09T17:18:13.424Z,101472.42
2018-10-09T17:20:40.534Z,101469.36
2018-10-09T17:23:07.763Z,101469.83
2018-10-09T17:25:34.995Z,101472.91
2018-10-09T17:28:02.014Z,101475.00
2018-10-09T17:30:29.073Z,101470.36
2018-10-09T17:32:56.160Z,101477.17
2018-10-09T17:35:23.225Z,101480.30
2018-10-09T17:37:50.580Z,101487.29
2018-10-09T17:40:17.592Z,101487.76
2018-10-09T17:42:44.991Z,101488.69
2018-10-09T17:45:12.048Z,101492.84
2018-10-09T17:47:39.110Z,101498.73
2018-10-09T17:50:06.636Z,101503.42
2018-10-09T17:52:33.720Z,101500.25
2018-10-09T17:55:00.811Z,101496.17
2018-10-09T17:57:27.806Z,101500.32
2018-10-09T17:59:54.864Z,101502.88
2018-10-09T18:02:22.247Z,101499.56
2018-10-09T18:04:49.304Z,101498.52
2018-10-09T18:07:16.376Z,101505.08
2018-10-09T18:09:43.381Z,101511.40
2018-10-09T18:12:10.763Z,101511.52
2018-10-09T18:14:38.334Z,101509.31
2018-10-09T18:17:05.861Z,101512.01
2018-10-09T18:19:32.856Z,101512.09
2018-10-09T18:22:00.203Z,101511.77
2018-10-09T18:24:27.180Z,101508.88
2018-10-09T18:26:54.204Z,101505.16
2018-10-09T18:29:21.314Z,101500.31
2018-10-09T18:31:48.927Z,101499.05
2018-10-09T18:34:16.163Z,101497.17
2018-10-09T18:36:43.417Z,101504.67
2018-10-09T18:39:12.507Z,101511.18
2018-10-09T18:41:40.061Z,101504.17
2018-10-09T18:44:07.937Z,101509.06
2018-10-09T18:46:35.480Z,101508.86
2018-10-09T18:49:02.600Z,101507.46
2018-10-09T18:51:29.616Z,101506.96
2018-10-09T18:53:56.589Z,101501.36
2018-10-09T18:56:23.785Z,101503.30
2018-10-09T18:58:51.280Z,101503.64
2018-10-09T19:01:18.176Z,101499.80
2018-10-09T19:03:45.506Z,101494.23
2018-10-09T19:06:12.551Z,101496.56
2018-10-09T19:08:39.531Z,101495.96
2018-10-09T19:11:06.608Z,101498.05
2018-10-09T19:13:40.583Z,101498.48
2018-10-09T19:16:07.840Z,101503.19
2018-10-09T19:18:34.812Z,101505.33
2018-10-09T19:21:01.924Z,101493.77
2018-10-09T19:23:28.916Z,101500.58
2018-10-09T19:25:55.983Z,101498.73
2018-10-09T19:28:22.948Z,101497.95
2018-10-09T19:30:50.019Z,101498.35
2018-10-09T19:33:17.104Z,101496.14
2018-10-09T19:35:44.195Z,101498.16
2018-10-09T19:38:11.201Z,101504.27
2018-10-09T19:40:38.175Z,101499.43
2018-10-09T19:43:05.160Z,101501.87
2018-10-09T19:45:32.168Z,101507.70
2018-10-09T19:47:59.168Z,101506.45
2018-10-09T19:50:26.132Z,101505.66
2018-10-09T19:52:53.123Z,101508.86
2018-10-09T19:55:20.175Z,101504.40
2018-10-09T19:57:47.141Z,101506.06
2018-10-09T20:00:14.137Z,101507.13
2018-10-09T20:02:41.115Z,101513.42
2018-10-09T20:05:08.092Z,101511.89
2018-10-09T20:07:35.201Z,101514.97
2018-10-09T20:10:02.177Z,101516.15
2018-10-09T20:12:29.246Z,101520.52
2018-10-09T20:14:56.416Z,101518.28
2018-10-09T20:17:24.598Z,101524.19
2018-10-09T20:19:52.624Z,101520.98
2018-10-09T20:22:21.149Z,101527.48
2018-10-09T20:24:49.129Z,101518.65
2018-10-09T20:27:17.463Z,101520.02
2018-10-09T20:29:45.764Z,101524.67
2018-10-09T20:32:14.071Z,101523.89
2018-10-09T20:34:41.800Z,101528.37
2018-10-09T20:37:09.792Z,101523.59
2018-10-09T20:39:36.872Z,101524.22
2018-10-09T20:42:03.868Z,101528.00
2018-10-09T20:44:30.857Z,101520.98
2018-10-09T20:46:57.876Z,101522.55
2018-10-09T20:49:24.831Z,101531.84
2018-10-09T20:51:51.809Z,101534.09
2018-10-09T20:54:18.968Z,101535.55
2018-10-09T20:56:46.020Z,101533.20
2018-10-09T20:59:12.978Z,101537.38
2018-10-09T21:01:40.111Z,101538.16
2018-10-09T21:04:07.151Z,101537.88
2018-10-09T21:06:34.167Z,101536.59
2018-10-09T21:09:01.544Z,101539.98
2018-10-09T21:11:28.525Z,101541.48
2018-10-09T21:13:55.628Z,101540.20
2018-10-09T21:16:22.885Z,101541.85
2018-10-09T21:18:49.847Z,101545.63
2018-10-09T21:21:16.815Z,101538.46
2018-10-09T21:23:44.075Z,101544.28
2018-10-09T21:26:11.150Z,101544.64
2018-10-09T21:28:38.136Z,101545.03
2018-10-09T21:31:05.692Z,101537.48
2018-10-09T21:33:32.747Z,101541.64
2018-10-09T21:36:01.767Z,101546.74
2018-10-09T21:38:28.824Z,101551.44
2018-10-09T21:40:55.856Z,101549.14
2018-10-09T21:43:22.839Z,101548.23
2018-10-09T21:45:50.127Z,101544.72
2018-10-09T21:48:17.728Z,101547.99
2018-10-09T21:50:44.837Z,101543.65
2018-10-09T21:53:11.993Z,101545.25
2018-10-09T21:55:39.228Z,101539.30
2018-10-09T21:58:06.493Z,101541.84
2018-10-09T22:00:39.458Z,101541.70
2018-10-09T22:03:07.026Z,101541.55
2018-10-09T22:05:34.292Z,101538.37
2018-10-09T22:08:01.637Z,101543.80
2018-10-09T22:10:28.841Z,101542.02
2018-10-09T22:12:55.941Z,101539.61
2018-10-09T22:15:23.251Z,101535.32
2018-10-09T22:17:50.401Z,101540.83
2018-10-09T22:20:17.463Z,101538.87
2018-10-09T22:22:44.724Z,101541.16
2018-10-09T22:25:11.713Z,101545.90
2018-10-09T22:27:38.740Z,101538.74
2018-10-09T22:30:06.050Z,101537.94
2018-10-09T22:32:33.074Z,101538.53
2018-10-09T22:35:00.057Z,101541.08
2018-10-09T22:37:27.421Z,101540.82
2018-10-09T22:39:54.400Z,101538.20
2018-10-09T22:42:21.372Z,101529.34
2018-10-09T22:44:48.921Z,101542.95
2018-10-09T22:47:15.956Z,101540.11
2018-10-09T22:49:42.933Z,101540.27
2018-10-09T22:52:09.982Z,101537.08
2018-10-09T22:54:37.203Z,101543.36
2018-10-09T22:57:04.188Z,101551.13
2018-10-09T22:59:31.555Z,101557.63
2018-10-09T23:01:58.549Z,101549.58
2018-10-09T23:04:25.600Z,101553.73
2018-10-09T23:06:52.616Z,101553.52
2018-10-09T23:09:19.775Z,101558.36
2018-10-09T23:11:46.762Z,101555.54
2018-10-09T23:14:15.033Z,101562.20
2018-10-09T23:16:42.009Z,101551.77
2018-10-09T23:19:08.988Z,101552.63
2018-10-09T23:21:36.045Z,101555.20
2018-10-09T23:24:03.264Z,101560.47
2018-10-09T23:26:30.287Z,101553.72
2018-10-09T23:28:57.427Z,101557.73
2018-10-09T23:31:24.431Z,101555.13
2018-10-09T23:33:51.481Z,101558.25
2018-10-09T23:36:18.471Z,101558.55
2018-10-09T23:38:45.752Z,101557.94
2018-10-09T23:41:12.739Z,101561.63
2018-10-09T23:43:39.718Z,101553.89
2018-10-09T23:46:06.792Z,101555.16
2018-10-09T23:48:33.779Z,101554.14
2018-10-09T23:51:00.823Z,101556.16
2018-10-09T23:53:27.897Z,101558.30
2018-10-09T23:55:54.895Z,101554.67
2018-10-09T23:58:21.995Z,101551.92
